Time;durP1;ratioP1;P1;durP2;ratioP2;P2;SDS_P1;SDS_P2;PMS_P1;PMS_P2;Temp;Humidity;BMP_temperature;BMP_pressure;BME280_temperature;BME280_humidity;BME280_pressure;Samples;Min_cycle;Max_cycle;Signal;HPM_P1;HPM_P2
2024/01/14 00:00:51;;;;;;;25.17;15.30;;;;;;;2.49;100.00;100213.34;5054933;28;20206;-72
2024/01/14 00:03:21;;;;;;;27.50;15.83;;;;;;;2.47;100.00;100203.81;5054804;28;20249;-71
2024/01/14 00:05:49;;;;;;;26.43;14.70;;;;;;;2.47;100.00;100199.38;5054474;28;20226;-71
2024/01/14 00:08:18;;;;;;;27.73;14.70;;;;;;;2.47;100.00;100194.09;5054509;28;20209;-71
2024/01/14 00:10:47;;;;;;;28.87;16.33;;;;;;;2.46;100.00;100200.38;5053723;28;20206;-71
2024/01/14 00:13:16;;;;;;;25.43;15.63;;;;;;;2.44;100.00;100189.06;5054073;28;20627;-71
2024/01/14 00:15:44;;;;;;;24.30;15.73;;;;;;;2.46;100.00;100195.09;5054437;28;20228;-71
2024/01/14 00:18:13;;;;;;;25.47;13.70;;;;;;;2.44;100.00;100199.63;5054596;28;20296;-71
2024/01/14 00:20:43;;;;;;;26.20;14.30;;;;;;;2.44;100.00;100199.63;5053975;28;20309;-72
2024/01/14 00:23:12;;;;;;;28.70;15.43;;;;;;;2.45;100.00;100188.13;5053901;28;20229;-71
2024/01/14 00:25:40;;;;;;;22.67;13.73;;;;;;;2.45;100.00;100196.03;5054137;28;20297;-72
2024/01/14 00:28:09;;;;;;;24.93;13.27;;;;;;;2.45;100.00;100198.69;5054187;28;20241;-71
2024/01/14 00:30:37;;;;;;;21.07;11.50;;;;;;;2.43;100.00;100194.50;5054382;28;20212;-72
2024/01/14 00:33:06;;;;;;;21.50;12.47;;;;;;;2.43;100.00;100200.59;5054001;28;20284;-72
2024/01/14 00:35:34;;;;;;;21.23;11.87;;;;;;;2.41;100.00;100189.31;5053720;28;20236;-72
2024/01/14 00:38:04;;;;;;;19.63;11.73;;;;;;;2.43;100.00;100187.38;5054022;28;20305;-72
2024/01/14 00:40:33;;;;;;;22.00;12.27;;;;;;;2.42;100.00;100191.00;5054208;28;20304;-72
2024/01/14 00:43:02;;;;;;;17.67;10.73;;;;;;;2.48;100.00;100187.03;5053785;28;20245;-72
2024/01/14 00:45:31;;;;;;;25.10;11.63;;;;;;;2.46;100.00;100166.03;5053905;28;20237;-72
2024/01/14 00:47:59;;;;;;;24.63;13.27;;;;;;;2.44;100.00;100175.84;5053844;28;20198;-72
2024/01/14 00:50:29;;;;;;;25.80;13.20;;;;;;;2.44;100.00;100167.94;5053856;28;20205;-72
2024/01/14 00:52:58;;;;;;;22.37;12.17;;;;;;;2.44;100.00;100178.50;5053697;28;20222;-72
2024/01/14 00:55:28;;;;;;;19.90;11.67;;;;;;;2.46;100.00;100181.88;5053748;28;20209;-72
2024/01/14 00:58:00;;;;;;;22.77;12.97;;;;;;;2.45;100.00;100179.34;5053457;28;20183;-72
2024/01/14 01:00:29;;;;;;;23.40;13.57;;;;;;;2.45;100.00;100174.06;5053653;28;20234;-72
2024/01/14 01:02:58;;;;;;;26.70;13.77;;;;;;;2.44;100.00;100178.50;5053525;28;20251;-72
2024/01/14 01:05:26;;;;;;;22.03;12.87;;;;;;;2.43;100.00;100166.25;5053629;28;20202;-72
2024/01/14 01:07:55;;;;;;;22.60;13.07;;;;;;;2.46;100.00;100167.81;5053469;28;20299;-72
2024/01/14 01:10:23;;;;;;;22.13;13.13;;;;;;;2.45;100.00;100148.47;5053438;28;20671;-72
2024/01/14 01:12:53;;;;;;;23.23;12.70;;;;;;;2.40;100.00;100161.22;5053416;28;20317;-72
2024/01/14 01:15:22;;;;;;;20.13;13.07;;;;;;;2.42;100.00;100151.38;5053496;28;20206;-72
2024/01/14 01:17:51;;;;;;;20.90;12.83;;;;;;;2.42;100.00;100147.88;5053440;28;20209;-72
2024/01/14 01:20:20;;;;;;;23.83;13.27;;;;;;;2.42;100.00;100146.09;5052948;28;20297;-72
2024/01/14 01:22:48;;;;;;;21.37;12.50;;;;;;;2.44;100.00;100136.22;5052928;28;20308;-72
2024/01/14 01:25:17;;;;;;;20.80;13.20;;;;;;;2.41;100.00;100141.75;5053361;28;20206;-72
2024/01/14 01:27:45;;;;;;;22.20;14.33;;;;;;;2.39;100.00;100122.56;5052995;28;20234;-72
2024/01/14 01:30:16;;;;;;;25.77;13.50;;;;;;;2.39;100.00;100133.13;5053034;28;20244;-72
2024/01/14 01:32:44;;;;;;;20.80;14.03;;;;;;;2.38;100.00;100136.72;5053504;28;20234;-72
2024/01/14 01:35:13;;;;;;;25.80;14.30;;;;;;;2.39;100.00;100133.13;5052928;28;20213;-72
2024/01/14 01:37:42;;;;;;;24.63;14.67;;;;;;;2.38;100.00;100126.16;5052923;28;20550;-72
2024/01/14 01:40:11;;;;;;;28.40;14.87;;;;;;;2.36;100.00;100120.13;5053211;28;20290;-72
2024/01/14 01:42:39;;;;;;;32.10;15.20;;;;;;;2.36;100.00;100128.06;5053041;28;20309;-72
2024/01/14 01:45:09;;;;;;;27.20;15.07;;;;;;;2.37;100.00;100118.34;5053181;28;20218;-72
2024/01/14 01:47:39;;;;;;;25.30;14.80;;;;;;;2.36;100.00;100117.50;5053283;28;20228;-72
2024/01/14 01:50:09;;;;;;;26.57;14.40;;;;;;;2.37;100.00;100121.81;5052873;28;20195;-72
2024/01/14 01:52:38;;;;;;;29.93;15.53;;;;;;;2.38;100.00;100125.31;5053032;28;20276;-72
2024/01/14 01:55:09;;;;;;;30.93;14.57;;;;;;;2.40;100.00;100131.31;5053300;28;20210;-72
2024/01/14 01:57:38;;;;;;;27.43;14.70;;;;;;;2.38;100.00;100120.88;5053106;28;20214;-72
2024/01/14 02:00:09;;;;;;;26.67;14.13;;;;;;;2.39;100.00;100117.28;5052719;28;20648;-72
2024/01/14 02:02:42;;;;;;;25.43;14.90;;;;;;;2.36;100.00;100112.22;5053064;28;20230;-72
2024/01/14 02:05:12;;;;;;;26.73;13.87;;;;;;;2.37;100.00;100113.91;5053059;28;20232;-72
2024/01/14 02:07:41;;;;;;;27.77;14.67;;;;;;;2.37;100.00;100113.91;5052920;28;20233;-72
2024/01/14 02:10:10;;;;;;;27.57;14.20;;;;;;;2.38;100.00;100110.31;5052987;28;20296;-72
2024/01/14 02:12:38;;;;;;;25.10;14.10;;;;;;;2.39;100.00;100112.00;5052858;28;20230;-72
2024/01/14 02:15:07;;;;;;;23.33;13.70;;;;;;;2.39;100.00;100109.34;5052881;28;20307;-72
2024/01/14 02:17:37;;;;;;;28.93;14.97;;;;;;;2.38;100.00;100105.03;5052834;28;20208;-72
2024/01/14 02:20:08;;;;;;;20.77;12.30;;;;;;;2.37;100.00;100111.25;5053168;28;20241;-72
2024/01/14 02:22:40;;;;;;;23.20;12.80;;;;;;;2.39;100.00;100109.34;5052829;28;20226;-72
2024/01/14 02:25:10;;;;;;;23.00;12.03;;;;;;;2.38;100.00;100105.03;5052883;28;20229;-72
2024/01/14 02:27:39;;;;;;;23.87;11.97;;;;;;;2.35;100.00;100100.00;5053064;28;20230;-72
2024/01/14 02:30:10;;;;;;;18.97;11.00;;;;;;;2.36;100.00;100093.72;5052798;28;20297;-72
2024/01/14 02:32:39;;;;;;;19.67;11.73;;;;;;;2.35;100.00;100093.88;5054055;28;20230;-72
2024/01/14 02:35:08;;;;;;;20.10;11.30;;;;;;;2.34;100.00;100089.53;5056108;28;20252;-72
2024/01/14 02:37:43;;;;;;;21.37;10.70;;;;;;;2.31;100.00;100093.28;5056318;28;20290;-72
2024/01/14 02:40:14;;;;;;;18.57;9.80;;;;;;;2.32;100.00;100094.97;5056405;28;20321;-72
2024/01/14 02:42:42;;;;;;;19.40;10.80;;;;;;;2.35;100.00;100094.72;5056222;28;20222;-72
2024/01/14 02:45:11;;;;;;;21.03;11.40;;;;;;;2.35;100.00;100092.06;5056162;28;20213;-72
2024/01/14 02:47:39;;;;;;;21.63;11.80;;;;;;;2.33;100.00;100088.69;5055743;28;20222;-72
2024/01/14 02:50:08;;;;;;;24.13;12.80;;;;;;;2.32;100.00;100073.00;5056062;28;20229;-72
2024/01/14 02:52:37;;;;;;;20.63;12.03;;;;;;;2.33;100.00;100083.41;5056079;28;20313;-72
2024/01/14 02:55:06;;;;;;;20.90;13.17;;;;;;;2.33;100.00;100075.47;5055713;28;20572;-72
2024/01/14 02:57:36;;;;;;;21.00;12.50;;;;;;;2.33;100.00;100070.19;5055618;28;20814;-72
2024/01/14 03:00:06;;;;;;;25.10;12.97;;;;;;;2.35;100.00;100063.00;5055970;28;20225;-72
2024/01/14 03:02:35;;;;;;;22.70;12.80;;;;;;;2.36;100.00;100069.13;5055799;28;20229;-72
2024/01/14 03:05:03;;;;;;;22.27;12.30;;;;;;;2.34;100.00;100056.03;5055557;28;20570;-72
2024/01/14 03:07:32;;;;;;;28.10;17.10;;;;;;;2.35;100.00;100064.81;5055735;28;20225;-72
2024/01/14 03:10:02;;;;;;;40.83;22.23;;;;;;;2.37;100.00;100069.00;5055734;28;20232;-72
2024/01/14 03:12:30;;;;;;;26.30;14.30;;;;;;;2.37;100.00;100070.78;5055657;28;20416;-72
2024/01/14 03:15:00;;;;;;;24.40;14.00;;;;;;;2.39;100.00;100068.88;5055646;28;20205;-72
2024/01/14 03:17:29;;;;;;;37.27;19.33;;;;;;;2.40;100.00;100059.97;5055257;28;20726;-72
2024/01/14 03:19:58;;;;;;;28.03;15.70;;;;;;;2.41;100.00;100073.06;5055528;28;20209;-71
2024/01/14 03:22:26;;;;;;;18.63;10.97;;;;;;;2.44;100.00;100066.69;5055843;28;20234;-71
2024/01/14 03:24:55;;;;;;;18.87;10.20;;;;;;;2.44;100.00;100066.69;5055375;28;20297;-71
2024/01/14 03:27:23;;;;;;;17.67;11.20;;;;;;;2.44;100.00;100067.53;5055310;28;20232;-71
2024/01/14 03:29:54;;;;;;;15.20;9.97;;;;;;;2.44;100.00;100072.81;5055063;28;20191;-71
2024/01/14 03:32:24;;;;;;;17.90;11.30;;;;;;;2.45;100.00;100065.75;5055645;28;20230;-71
2024/01/14 03:34:53;;;;;;;18.33;9.70;;;;;;;2.47;100.00;100075.22;5055004;28;20245;-71
2024/01/14 03:37:22;;;;;;;15.40;10.80;;;;;;;2.47;100.00;100077.84;5055189;28;20267;-72
2024/01/14 03:39:50;;;;;;;16.77;11.10;;;;;;;2.46;100.00;100081.47;5055136;28;20289;-72
2024/01/14 03:42:19;;;;;;;16.10;10.37;;;;;;;2.45;100.00;100076.31;5055019;28;20253;-72
2024/01/14 03:44:47;;;;;;;17.37;11.47;;;;;;;2.45;100.00;100077.16;5053754;28;20624;-72
2024/01/14 03:47:16;;;;;;;21.40;15.13;;;;;;;2.44;100.00;100070.19;5054576;28;20595;-72
2024/01/14 03:49:46;;;;;;;16.63;10.83;;;;;;;2.44;100.00;100067.53;5054951;28;20269;-72
2024/01/14 03:52:14;;;;;;;19.13;12.20;;;;;;;2.43;100.00;100060.56;5054843;28;20313;-71
2024/01/14 03:54:43;;;;;;;17.27;11.80;;;;;;;2.45;100.00;100069.22;5054540;28;20734;-71
2024/01/14 03:57:11;;;;;;;19.43;11.40;;;;;;;2.49;100.00;100069.81;5054821;28;20577;-71
2024/01/14 03:59:40;;;;;;;19.17;11.97;;;;;;;2.46;100.00;100065.63;5054754;28;20251;-71
2024/01/14 04:02:09;;;;;;;14.90;10.53;;;;;;;2.45;100.00;100063.94;5054668;28;20289;-71
2024/01/14 04:04:37;;;;;;;17.80;11.90;;;;;;;2.47;100.00;100066.44;5054663;28;20212;-71
2024/01/14 04:07:07;;;;;;;17.00;9.93;;;;;;;2.43;100.00;100052.63;5054629;28;20213;-71
2024/01/14 04:09:36;;;;;;;13.83;9.47;;;;;;;2.43;100.00;100050.00;5054173;28;20727;-71
2024/01/14 04:12:05;;;;;;;12.33;8.30;;;;;;;2.44;100.00;100054.31;5054466;28;20580;-71
2024/01/14 04:14:33;;;;;;;11.93;6.83;;;;;;;2.43;100.00;100055.28;5054453;28;20206;-71
2024/01/14 04:17:02;;;;;;;13.67;7.20;;;;;;;2.43;100.00;100042.06;5054087;28;20669;-71
2024/01/14 04:19:30;;;;;;;12.13;6.90;;;;;;;2.41;100.00;100046.66;5054386;28;20233;-72
2024/01/14 04:21:59;;;;;;;13.63;7.30;;;;;;;2.41;100.00;100051.94;5054281;28;20221;-71
2024/01/14 04:24:28;;;;;;;10.40;6.57;;;;;;;2.42;100.00;100058.91;5054310;28;20206;-71
2024/01/14 04:26:57;;;;;;;11.53;5.80;;;;;;;2.43;100.00;100049.19;5054232;28;20210;-71
2024/01/14 04:29:26;;;;;;;14.90;7.10;;;;;;;2.42;100.00;100053.63;5054107;28;20234;-71
2024/01/14 04:31:54;;;;;;;11.50;6.53;;;;;;;2.41;100.00;100051.09;5054059;28;20202;-71
2024/01/14 04:34:23;;;;;;;13.30;5.77;;;;;;;2.39;100.00;100043.31;5054088;28;20218;-71
2024/01/14 04:36:51;;;;;;;13.63;6.40;;;;;;;2.37;100.00;100039.94;5054046;28;20236;-71
2024/01/14 04:39:20;;;;;;;14.20;6.73;;;;;;;2.38;100.00;100046.91;5054072;28;20214;-72
2024/01/14 04:41:49;;;;;;;16.67;6.60;;;;;;;2.40;100.00;100050.25;5053925;28;20212;-72
2024/01/14 04:44:18;;;;;;;10.63;6.07;;;;;;;2.41;100.00;100037.88;5053850;28;20672;-71
2024/01/14 04:46:47;;;;;;;16.47;6.63;;;;;;;2.41;100.00;100051.09;5054099;28;20292;-71
2024/01/14 04:49:15;;;;;;;13.63;7.40;;;;;;;2.40;100.00;100044.97;5053814;28;20248;-71
2024/01/14 04:51:44;;;;;;;17.13;7.97;;;;;;;2.41;100.00;100041.38;5053808;28;20318;-71
2024/01/14 04:54:15;;;;;;;12.60;7.57;;;;;;;2.39;100.00;100043.31;5053757;28;20222;-71
2024/01/14 04:56:44;;;;;;;14.77;8.00;;;;;;;2.39;100.00;100053.03;5053265;28;20744;-71
2024/01/14 04:59:14;;;;;;;13.27;7.63;;;;;;;2.37;100.00;100034.66;5053733;28;20202;-71
2024/01/14 05:01:43;;;;;;;13.77;6.27;;;;;;;2.42;100.00;100042.22;5053724;28;20272;-71
2024/01/14 05:04:12;;;;;;;11.57;5.63;;;;;;;2.41;100.00;100040.53;5053581;28;20228;-71
2024/01/14 05:06:40;;;;;;;10.83;5.73;;;;;;;2.40;100.00;100042.31;5053601;28;20255;-71
2024/01/14 05:09:09;;;;;;;9.33;5.30;;;;;;;2.34;100.00;100042.00;5053174;28;20221;-71
2024/01/14 05:11:38;;;;;;;11.30;5.23;;;;;;;2.34;100.00;100040.19;5053523;28;20212;-71
2024/01/14 05:14:06;;;;;;;15.33;4.97;;;;;;;2.34;100.00;100039.34;5053166;28;20683;-71
2024/01/14 05:16:36;;;;;;;9.13;4.50;;;;;;;2.33;100.00;100038.50;5053469;28;20210;-71
2024/01/14 05:19:05;;;;;;;11.03;4.57;;;;;;;2.34;100.00;100039.34;5053434;28;20202;-71
2024/01/14 05:21:34;;;;;;;9.23;4.80;;;;;;;2.34;100.00;100029.63;5053127;28;20228;-71
2024/01/14 05:24:02;;;;;;;9.90;4.47;;;;;;;2.34;100.00;100034.91;5053292;28;20230;-71
2024/01/14 05:26:31;;;;;;;9.87;4.27;;;;;;;2.32;100.00;100036.84;5053373;28;20259;-71
2024/01/14 05:29:00;;;;;;;14.33;4.77;;;;;;;2.32;100.00;100031.56;5052937;28;20700;-71
2024/01/14 05:31:29;;;;;;;11.17;4.70;;;;;;;2.33;100.00;100027.94;5053375;28;20304;-71
2024/01/14 05:33:59;;;;;;;8.93;4.77;;;;;;;2.33;100.00;100017.38;5053123;28;20259;-71
2024/01/14 05:36:28;;;;;;;13.23;5.37;;;;;;;2.34;100.00;100023.50;5053311;28;20202;-71
2024/01/14 05:38:57;;;;;;;11.97;4.97;;;;;;;2.35;100.00;100035.75;5053264;28;20226;-71
2024/01/14 05:41:25;;;;;;;16.17;4.80;;;;;;;2.36;100.00;100022.41;5053301;28;20213;-71
2024/01/14 05:43:53;;;;;;;9.63;5.10;;;;;;;2.34;100.00;100019.06;5052838;28;20321;-71
2024/01/14 05:46:22;;;;;;;11.77;4.83;;;;;;;2.35;100.00;100025.19;5053210;28;20209;-71
2024/01/14 05:48:51;;;;;;;12.57;5.37;;;;;;;2.34;100.00;100016.44;5052747;28;20710;-71
2024/01/14 05:51:21;;;;;;;10.73;5.00;;;;;;;2.34;100.00;100013.78;5053168;28;20237;-71
2024/01/14 05:53:49;;;;;;;12.77;4.70;;;;;;;2.28;100.00;100014.28;5053031;28;20599;-71
2024/01/14 05:56:26;;;;;;;13.33;4.60;;;;;;;2.30;100.00;100012.34;5053079;28;20217;-71
2024/01/14 05:58:54;;;;;;;11.20;4.63;;;;;;;2.31;100.00;100013.19;5052802;28;20640;-71
2024/01/14 06:01:23;;;;;;;13.43;4.23;;;;;;;2.33;100.00;100017.38;5052772;28;20702;-71
2024/01/14 06:03:51;;;;;;;12.37;4.50;;;;;;;2.35;100.00;100017.25;5052653;28;20648;-71
2024/01/14 06:06:21;;;;;;;12.87;4.57;;;;;;;2.33;100.00;100017.38;5053038;28;20244;-71
2024/01/14 06:08:50;;;;;;;18.17;4.43;;;;;;;2.30;100.00;100016.78;5056148;28;20741;-71
2024/01/14 06:11:19;;;;;;;21.50;11.33;;;;;;;2.28;100.00;100014.28;5057319;28;20209;-71
2024/01/14 06:13:47;;;;;;;11.87;4.73;;;;;;;2.32;100.00;100021.00;5056407;28;20257;-71
2024/01/14 06:16:16;;;;;;;10.83;4.57;;;;;;;2.30;100.00;100017.63;5056454;28;20687;-71
2024/01/14 06:18:45;;;;;;;12.63;5.23;;;;;;;2.30;100.00;100022.06;5056359;28;20297;-71
2024/01/14 06:21:13;;;;;;;10.40;5.40;;;;;;;2.32;100.00;100021.00;5056620;28;20206;-71
2024/01/14 06:23:43;;;;;;;19.60;7.30;;;;;;;2.31;100.00;100027.25;5056534;28;20233;-72
2024/01/14 06:26:17;;;;;;;19.23;8.40;;;;;;;2.28;100.00;100014.28;5056571;28;20269;-72
2024/01/14 06:28:46;;;;;;;17.53;7.53;;;;;;;2.28;100.00;100021.38;5056517;28;20191;-71
2024/01/14 06:31:18;;;;;;;17.80;6.27;;;;;;;2.27;100.00;100015.25;5056229;28;20277;-71
2024/01/14 06:33:46;;;;;;;12.03;4.70;;;;;;;2.26;100.00;100016.19;5057194;28;20230;-71
2024/01/14 06:36:18;;;;;;;9.83;5.57;;;;;;;2.24;100.00;100015.50;5055956;28;20213;-71
2024/01/14 06:38:48;;;;;;;10.13;4.63;;;;;;;2.26;100.00;100016.19;5056376;28;20195;-71
2024/01/14 06:41:20;;;;;;;11.27;5.47;;;;;;;2.27;100.00;100017.88;5056207;28;20232;-71
2024/01/14 06:43:49;;;;;;;11.20;5.23;;;;;;;2.25;100.00;100014.53;5056010;28;20234;-71
2024/01/14 06:46:17;;;;;;;13.27;5.43;;;;;;;2.23;100.00;100019.09;5056104;28;20291;-71
2024/01/14 06:48:46;;;;;;;10.53;4.57;;;;;;;2.23;100.00;100016.44;5056045;28;20233;-71
2024/01/14 06:51:15;;;;;;;10.10;4.50;;;;;;;2.21;100.00;100013.09;5055995;28;20234;-71
2024/01/14 06:53:43;;;;;;;13.80;4.73;;;;;;;2.21;100.00;100018.41;5055826;28;20316;-71
2024/01/14 06:56:16;;;;;;;9.73;3.43;;;;;;;2.23;100.00;100005.88;5055908;28;20234;-71
2024/01/14 06:58:44;;;;;;;13.17;3.83;;;;;;;2.23;100.00;100005.03;5055650;28;20706;-71
2024/01/14 07:01:13;;;;;;;12.97;3.80;;;;;;;2.22;100.00;100014.81;5055894;28;20244;-71
2024/01/14 07:03:42;;;;;;;10.80;3.90;;;;;;;2.22;100.00;100021.88;5055435;28;20635;-71
2024/01/14 07:06:11;;;;;;;10.83;3.80;;;;;;;2.21;100.00;100015.75;5055775;28;20210;-71
2024/01/14 07:08:40;;;;;;;11.67;3.67;;;;;;;2.17;100.00;100011.69;5055760;28;20202;-71
2024/01/14 07:11:08;;;;;;;11.77;4.20;;;;;;;2.17;100.00;100008.19;5056077;28;20287;-71
2024/01/14 07:13:39;;;;;;;14.30;4.70;;;;;;;2.15;100.00;100007.50;5055267;28;20582;-71
2024/01/14 07:16:07;;;;;;;12.03;3.80;;;;;;;2.17;100.00;100016.97;5055296;28;20668;-71
2024/01/14 07:18:36;;;;;;;12.07;4.57;;;;;;;2.21;100.00;100013.09;5055194;28;20623;-71
2024/01/14 07:21:05;;;;;;;12.37;4.73;;;;;;;2.20;100.00;100006.16;5055208;28;20733;-71
2024/01/14 07:23:33;;;;;;;12.70;4.73;;;;;;;2.19;100.00;100012.41;5055400;28;20280;-71
2024/01/14 07:26:17;;;;;;;13.20;4.83;;;;;;;2.16;100.00;100002.06;5055473;28;20280;-71
2024/01/14 07:28:52;;;;;;;11.17;4.20;;;;;;;2.15;100.00;100003.06;5055382;28;20198;-71
2024/01/14 07:31:21;;;;;;;19.40;4.47;;;;;;;2.12;100.00;99999.81;5055297;28;20214;-71
2024/01/14 07:33:51;;;;;;;12.43;3.77;;;;;;;2.13;100.00;100002.31;5054803;28;20236;-71
2024/01/14 07:36:21;;;;;;;11.23;3.93;;;;;;;2.15;100.00;100003.06;5055195;28;20232;-71
2024/01/14 07:38:52;;;;;;;17.70;4.10;;;;;;;2.15;100.00;99996.94;5055171;28;20213;-71
2024/01/14 07:41:21;;;;;;;13.97;3.47;;;;;;;2.15;100.00;100000.41;5055169;28;20273;-71
2024/01/14 07:43:50;;;;;;;8.87;3.80;;;;;;;2.17;100.00;100011.69;5055219;28;20230;-71
2024/01/14 07:46:20;;;;;;;12.23;3.73;;;;;;;2.18;100.00;100008.09;5054721;28;20680;-71
2024/01/14 07:48:49;;;;;;;9.80;3.60;;;;;;;2.18;100.00;100013.38;5054647;28;20686;-71
2024/01/14 07:51:17;;;;;;;10.90;3.90;;;;;;;2.22;100.00;100014.81;5054857;28;20225;-71
2024/01/14 07:53:49;;;;;;;13.63;4.53;;;;;;;2.21;100.00;100018.41;5054876;28;20226;-71
2024/01/14 07:56:19;;;;;;;17.53;4.57;;;;;;;2.20;100.00;100021.16;5054818;28;20202;-71
2024/01/14 07:58:47;;;;;;;16.93;5.23;;;;;;;2.22;100.00;100020.09;5054444;28;20651;-71
2024/01/14 08:01:18;;;;;;;12.70;5.10;;;;;;;2.19;100.00;100022.13;5054727;28;20241;-71
2024/01/14 08:03:46;;;;;;;14.53;5.57;;;;;;;2.23;100.00;100024.38;5054653;28;20230;-71
2024/01/14 08:06:22;;;;;;;16.00;5.60;;;;;;;2.23;100.00;100013.81;5054612;28;20202;-71
2024/01/14 08:08:50;;;;;;;19.77;6.53;;;;;;;2.23;100.00;100012.97;5054314;28;20640;-71
2024/01/14 08:11:19;;;;;;;20.17;5.70;;;;;;;2.23;100.00;100015.59;5054467;28;20348;-71
2024/01/14 08:13:49;;;;;;;20.07;6.47;;;;;;;2.22;100.00;100011.31;5054395;28;20276;-71
2024/01/14 08:16:19;;;;;;;14.37;5.00;;;;;;;2.18;100.00;100018.66;5054435;28;20228;-71
2024/01/14 08:18:48;;;;;;;13.83;5.40;;;;;;;2.20;100.00;100018.50;5054426;28;20260;-71
2024/01/14 08:21:16;;;;;;;11.40;4.50;;;;;;;2.18;100.00;100010.72;5054338;28;20202;-71
2024/01/14 08:23:45;;;;;;;14.83;5.50;;;;;;;2.20;100.00;100011.44;5054228;28;20226;-71
2024/01/14 08:26:14;;;;;;;15.43;5.87;;;;;;;2.23;100.00;100015.59;5054226;28;20305;-71
2024/01/14 08:28:42;;;;;;;15.17;4.93;;;;;;;2.22;100.00;100014.81;5054182;28;20305;-71
2024/01/14 08:31:11;;;;;;;15.37;5.40;;;;;;;2.21;100.00;100017.56;5053657;28;20257;-71
2024/01/14 08:33:43;;;;;;;12.07;5.13;;;;;;;2.22;100.00;100019.25;5054043;28;20226;-71
2024/01/14 08:36:12;;;;;;;18.77;5.27;;;;;;;2.22;100.00;100014.81;5053749;28;20226;-71
2024/01/14 08:38:41;;;;;;;14.13;4.60;;;;;;;2.23;100.00;100016.44;5054012;28;20210;-71
2024/01/14 08:41:09;;;;;;;11.07;4.37;;;;;;;2.22;100.00;100014.81;5053927;28;20256;-72
2024/01/14 08:43:38;;;;;;;12.20;5.23;;;;;;;2.24;100.00;100012.84;5053840;28;20261;-71
2024/01/14 08:46:06;;;;;;;14.17;4.90;;;;;;;2.22;100.00;100014.81;5053895;28;20241;-71
2024/01/14 08:48:35;;;;;;;13.63;4.53;;;;;;;2.24;100.00;100007.56;5053882;28;20208;-71
2024/01/14 08:51:05;;;;;;;15.00;5.30;;;;;;;2.24;100.00;100012.84;5053396;28;20665;-71
2024/01/14 08:53:34;;;;;;;14.60;5.03;;;;;;;2.28;100.00;100008.16;5053720;28;20280;-71
2024/01/14 08:56:03;;;;;;;15.80;5.20;;;;;;;2.26;100.00;100003.00;5053724;28;20238;-71
2024/01/14 08:58:32;;;;;;;13.77;4.53;;;;;;;2.30;100.00;100001.78;5053777;28;20284;-71
2024/01/14 09:01:00;;;;;;;14.93;5.33;;;;;;;2.30;100.00;100006.22;5053658;28;20206;-71
2024/01/14 09:03:29;;;;;;;15.77;4.83;;;;;;;2.31;100.00;100007.91;5053524;28;20279;-71
2024/01/14 09:05:57;;;;;;;17.60;5.20;;;;;;;2.30;100.00;100007.06;5053632;28;20209;-71
2024/01/14 09:08:27;;;;;;;12.33;4.80;;;;;;;2.32;100.00;100009.59;5053551;28;20210;-71
2024/01/14 09:10:55;;;;;;;14.00;5.10;;;;;;;2.34;100.00;100007.66;5053146;28;20324;-71
2024/01/14 09:13:24;;;;;;;14.10;5.83;;;;;;;2.34;100.00;100002.38;5053092;28;20256;-71
2024/01/14 09:15:52;;;;;;;12.73;5.03;;;;;;;2.36;100.00;100003.09;5053451;28;20226;-71
2024/01/14 09:18:21;;;;;;;16.47;4.60;;;;;;;2.37;100.00;99995.03;5053064;28;20645;-71
2024/01/14 09:20:50;;;;;;;12.40;4.47;;;;;;;2.38;100.00;99996.72;5053382;28;20244;-71
2024/01/14 09:23:18;;;;;;;15.07;4.77;;;;;;;2.39;100.00;99995.75;5052990;28;20325;-71
2024/01/14 09:25:48;;;;;;;15.13;5.87;;;;;;;2.40;100.00;99992.13;5053015;28;20206;-71
2024/01/14 09:28:17;;;;;;;11.77;5.27;;;;;;;2.40;100.00;99988.66;5053286;28;20298;-71
2024/01/14 09:30:45;;;;;;;11.53;5.67;;;;;;;2.41;100.00;99992.97;5053240;28;20265;-71
2024/01/14 09:33:15;;;;;;;14.20;5.80;;;;;;;2.43;100.00;99991.06;5052876;28;20609;-71
2024/01/14 09:35:44;;;;;;;14.27;5.87;;;;;;;2.42;100.00;99989.38;5052876;28;20283;-71
2024/01/14 09:38:13;;;;;;;10.13;5.47;;;;;;;2.43;100.00;99996.34;5053253;28;20206;-71
2024/01/14 09:40:42;;;;;;;11.23;6.10;;;;;;;2.44;100.00;99998.84;5052884;28;20239;-71
2024/01/14 09:43:13;;;;;;;17.63;8.73;;;;;;;2.43;100.00;100002.44;5055228;28;20644;-71
2024/01/14 09:45:42;;;;;;;22.63;7.13;;;;;;;2.45;100.00;100004.97;5057092;28;20233;-71
2024/01/14 09:48:18;;;;;;;18.87;8.83;;;;;;;2.43;100.00;99991.06;5057318;28;20190;-71
2024/01/14 09:50:49;;;;;;;15.20;7.07;;;;;;;2.42;100.00;99995.50;5056898;28;20632;-71
2024/01/14 09:53:19;;;;;;;14.37;7.77;;;;;;;2.44;100.00;99990.94;5057110;28;20634;-71
2024/01/14 09:55:50;;;;;;;14.97;8.47;;;;;;;2.44;100.00;99996.22;5057083;28;20212;-71
2024/01/14 09:58:21;;;;;;;14.90;7.40;;;;;;;2.44;100.00;99985.63;5057106;28;20190;-71
2024/01/14 10:00:54;;;;;;;14.57;7.93;;;;;;;2.46;100.00;99990.81;5057040;28;20232;-71
2024/01/14 10:03:23;;;;;;;15.47;7.93;;;;;;;2.45;100.00;99984.69;5056607;28;20232;-71
2024/01/14 10:05:50;;;;;;;14.03;8.20;;;;;;;2.47;100.00;99982.75;5057149;28;20206;-71
2024/01/14 10:08:19;;;;;;;18.97;9.30;;;;;;;2.47;100.00;99969.53;5056886;28;20242;-71
2024/01/14 10:10:53;;;;;;;16.73;8.83;;;;;;;2.48;100.00;99971.22;5056711;28;20210;-71
2024/01/14 10:13:28;;;;;;;16.50;7.50;;;;;;;2.50;100.00;99966.63;5056693;28;20233;-71
2024/01/14 10:15:56;;;;;;;12.73;6.60;;;;;;;2.52;100.00;99962.06;5056450;28;20285;-71
2024/01/14 10:18:27;;;;;;;10.60;6.53;;;;;;;2.49;100.00;99959.69;5056393;28;20644;-71
2024/01/14 10:20:57;;;;;;;13.00;7.03;;;;;;;2.51;100.00;99960.38;5056636;28;20689;-71
2024/01/14 10:23:26;;;;;;;16.57;8.77;;;;;;;2.51;100.00;99957.75;5056504;28;20226;-71
2024/01/14 10:26:01;;;;;;;15.17;7.93;;;;;;;2.53;100.00;99950.50;5056513;28;20202;-71
2024/01/14 10:28:33;;;;;;;13.87;7.77;;;;;;;2.53;100.00;99955.81;5056514;28;20255;-71
2024/01/14 10:31:04;;;;;;;15.37;8.27;;;;;;;2.60;100.00;99955.31;5056390;28;20193;-71
2024/01/14 10:33:34;;;;;;;16.10;8.67;;;;;;;2.60;100.00;99944.75;5056079;28;20226;-71
2024/01/14 10:36:08;;;;;;;16.40;9.03;;;;;;;2.63;100.00;99945.31;5054870;28;20305;-70
2024/01/14 10:38:36;;;;;;;15.77;9.23;;;;;;;2.66;100.00;99938.94;5055091;28;20231;-71
2024/01/14 10:41:06;;;;;;;17.47;9.73;;;;;;;2.65;100.00;99931.97;5055051;28;20303;-71
2024/01/14 10:43:36;;;;;;;16.27;9.47;;;;;;;2.65;100.00;99942.53;5055112;28;20257;-71
2024/01/14 10:46:07;;;;;;;17.40;10.37;;;;;;;2.64;100.00;99935.59;5054987;28;20194;-71
2024/01/14 10:48:40;;;;;;;17.67;9.63;;;;;;;2.61;100.00;99928.75;5054925;28;20191;-71
2024/01/14 10:51:12;;;;;;;17.07;10.73;;;;;;;2.60;100.00;99928.88;5054869;28;20206;-71
2024/01/14 10:53:49;;;;;;;18.30;11.03;;;;;;;2.59;100.00;99919.28;5054070;28;20230;-71
2024/01/14 10:56:22;;;;;;;19.57;10.33;;;;;;;2.59;100.00;99914.00;5054869;28;20296;-71
2024/01/14 10:58:57;;;;;;;18.10;10.60;;;;;;;2.59;100.00;99906.06;5054809;28;20281;-71
2024/01/14 11:01:28;;;;;;;17.00;9.63;;;;;;;2.60;100.00;99907.75;5054474;28;20723;-71
2024/01/14 11:03:57;;;;;;;11.73;8.47;;;;;;;2.63;100.00;99902.19;5054818;28;20222;-71
2024/01/14 11:06:26;;;;;;;12.07;8.57;;;;;;;2.66;100.00;99904.56;5054938;28;20255;-71
2024/01/14 11:08:55;;;;;;;12.83;8.20;;;;;;;2.67;100.00;99896.50;5054709;28;20321;-71
2024/01/14 11:11:46;;;;;;;13.03;8.67;;;;;;;2.69;100.00;99896.38;5054591;28;20248;-71
2024/01/14 11:14:23;;;;;;;12.50;8.53;;;;;;;2.70;100.00;99895.44;5054486;28;20265;-71
2024/01/14 11:17:00;;;;;;;15.53;7.73;;;;;;;2.68;100.00;99898.19;5054501;28;20281;-71
2024/01/14 11:19:34;;;;;;;15.27;8.67;;;;;;;2.64;100.00;99888.03;5054491;28;20240;-71
2024/01/14 11:22:25;;;;;;;10.93;7.97;;;;;;;2.64;100.00;99882.75;5054347;28;20255;-71
2024/01/14 11:25:05;;;;;;;12.70;7.67;;;;;;;2.65;100.00;99879.94;5054383;28;20297;-71
2024/01/14 11:27:35;;;;;;;11.47;7.57;;;;;;;2.63;100.00;99875.78;5054407;28;20202;-71